createdAt,value
2023-05-09T00:00:33.103Z,16.50
2023-05-09T00:02:59.908Z,16.50
2023-05-09T00:05:26.881Z,16.50
2023-05-09T00:07:53.588Z,16.50
2023-05-09T00:10:20.465Z,16.50
2023-05-09T00:12:47.275Z,16.50
2023-05-09T00:15:14.271Z,16.50
2023-05-09T00:17:41.496Z,16.50
2023-05-09T00:20:12.308Z,16.50
2023-05-09T00:22:41.148Z,16.50
2023-05-09T00:25:09.604Z,16.50
2023-05-09T00:27:36.453Z,16.40
2023-05-09T00:30:05.531Z,16.40
2023-05-09T00:32:33.401Z,16.40
2023-05-09T00:35:00.249Z,16.40
2023-05-09T00:37:27.166Z,16.40
2023-05-09T00:39:53.833Z,16.40
2023-05-09T00:42:20.637Z,16.40
2023-05-09T00:44:47.313Z,16.40
2023-05-09T00:47:14.044Z,16.40
2023-05-09T00:49:40.830Z,16.30
2023-05-09T00:52:07.532Z,16.30
2023-05-09T00:54:34.545Z,16.30
2023-05-09T00:57:01.433Z,16.30
2023-05-09T00:59:28.520Z,16.30
2023-05-09T01:01:56.117Z,16.30
2023-05-09T01:04:23.120Z,16.30
2023-05-09T01:06:52.544Z,16.30
2023-05-09T01:09:45.642Z,16.30
2023-05-09T01:12:24.388Z,16.30
2023-05-09T01:15:11.970Z,16.30
2023-05-09T01:18:01.123Z,16.30
2023-05-09T01:20:38.244Z,16.30
2023-05-09T01:23:36.761Z,16.30
2023-05-09T01:26:28.137Z,16.30
2023-05-09T01:29:19.506Z,16.30
2023-05-09T01:31:49.127Z,16.30
2023-05-09T01:34:18.037Z,16.30
2023-05-09T01:36:46.934Z,16.20
2023-05-09T01:39:14.805Z,16.20
2023-05-09T01:41:41.564Z,16.30
2023-05-09T01:44:11.732Z,16.20
2023-05-09T01:46:39.773Z,16.20
2023-05-09T01:49:08.468Z,16.20
2023-05-09T01:51:37.886Z,16.20
2023-05-09T01:54:06.895Z,16.20
2023-05-09T01:56:36.417Z,16.20
2023-05-09T01:59:06.585Z,16.20
2023-05-09T02:01:34.509Z,16.20
2023-05-09T02:04:05.081Z,16.20
2023-05-09T02:06:32.626Z,16.20
2023-05-09T02:08:59.927Z,16.20
2023-05-09T02:11:26.726Z,16.20
2023-05-09T02:13:53.558Z,16.20
2023-05-09T02:16:21.074Z,16.20
2023-05-09T02:18:47.910Z,16.20
2023-05-09T02:21:14.716Z,16.20
2023-05-09T02:23:41.594Z,16.20
2023-05-09T02:26:08.659Z,16.20
2023-05-09T02:28:36.968Z,16.20
2023-05-09T02:31:07.046Z,16.10
2023-05-09T02:33:36.117Z,16.10
2023-05-09T02:36:03.241Z,16.10
2023-05-09T02:38:30.047Z,16.10
2023-05-09T02:40:56.931Z,16.10
2023-05-09T02:43:23.716Z,16.10
2023-05-09T02:45:50.624Z,16.10
2023-05-09T02:48:17.430Z,16.10
2023-05-09T02:50:45.907Z,16.10
2023-05-09T02:53:12.607Z,16.00
2023-05-09T02:55:39.318Z,16.00
2023-05-09T02:58:13.255Z,16.00
2023-05-09T03:00:40.764Z,16.00
2023-05-09T03:03:07.572Z,16.10
2023-05-09T03:05:34.718Z,16.00
2023-05-09T03:08:01.561Z,16.00
2023-05-09T03:10:28.280Z,16.00
2023-05-09T03:12:55.089Z,16.00
2023-05-09T03:15:21.831Z,16.00
2023-05-09T03:17:48.531Z,16.00
2023-05-09T03:20:15.870Z,16.00
2023-05-09T03:22:42.735Z,15.90
2023-05-09T03:25:10.215Z,16.00
2023-05-09T03:27:36.925Z,15.90
2023-05-09T03:30:03.953Z,15.90
2023-05-09T03:32:30.841Z,15.90
2023-05-09T03:34:57.650Z,15.90
2023-05-09T03:37:26.232Z,15.90
2023-05-09T03:39:53.851Z,15.90
2023-05-09T03:42:21.420Z,15.90
2023-05-09T03:44:48.126Z,15.90
2023-05-09T03:47:14.835Z,15.90
2023-05-09T03:49:41.566Z,15.90
2023-05-09T03:52:08.255Z,15.90
2023-05-09T03:54:35.175Z,15.90
2023-05-09T03:57:01.868Z,15.90
2023-05-09T03:59:28.545Z,15.90
2023-05-09T04:01:55.384Z,15.90
2023-05-09T04:04:22.381Z,15.90
2023-05-09T04:06:49.113Z,15.90
2023-05-09T04:09:15.947Z,15.90
2023-05-09T04:11:42.737Z,15.90
2023-05-09T04:14:09.448Z,15.80
2023-05-09T04:16:36.227Z,15.90
2023-05-09T04:19:03.014Z,15.80
2023-05-09T04:21:29.735Z,15.90
2023-05-09T04:23:56.647Z,15.90
2023-05-09T04:26:24.692Z,15.80
2023-05-09T04:28:52.849Z,15.80
2023-05-09T04:31:19.674Z,15.80
2023-05-09T04:33:46.538Z,15.80
2023-05-09T04:36:13.288Z,15.80
2023-05-09T04:38:40.047Z,15.80
2023-05-09T04:41:07.150Z,15.80
2023-05-09T04:43:34.084Z,15.80
2023-05-09T04:46:01.352Z,15.80
2023-05-09T04:48:28.147Z,15.90
2023-05-09T04:50:55.015Z,15.80
2023-05-09T04:53:21.748Z,15.80
2023-05-09T04:55:48.421Z,15.90
2023-05-09T04:58:15.304Z,15.90
2023-05-09T05:00:42.039Z,15.90
2023-05-09T05:03:08.901Z,15.90
2023-05-09T05:05:37.339Z,15.90
2023-05-09T05:08:04.851Z,15.90
2023-05-09T05:10:31.687Z,15.90
2023-05-09T05:12:58.401Z,16.00
2023-05-09T05:15:26.860Z,16.00
2023-05-09T05:17:53.751Z,16.00
2023-05-09T05:20:21.201Z,16.00
2023-05-09T05:22:48.009Z,16.10
2023-05-09T05:25:15.271Z,16.10
2023-05-09T05:27:44.210Z,16.10
2023-05-09T05:30:11.624Z,16.20
2023-05-09T05:32:38.351Z,16.20
2023-05-09T05:35:05.563Z,16.20
2023-05-09T05:37:32.271Z,16.30
2023-05-09T05:39:59.105Z,16.30
2023-05-09T05:42:25.824Z,16.30
2023-05-09T05:44:52.592Z,16.30
2023-05-09T05:47:19.268Z,16.40
2023-05-09T05:49:46.290Z,16.40
2023-05-09T05:52:12.992Z,16.40
2023-05-09T05:54:39.676Z,16.50
2023-05-09T05:57:06.414Z,16.50
2023-05-09T05:59:33.091Z,16.50
2023-05-09T06:02:00.371Z,16.60
2023-05-09T06:04:28.961Z,16.60
2023-05-09T06:06:55.850Z,16.60
2023-05-09T06:09:22.654Z,16.60
2023-05-09T06:11:49.372Z,16.60
2023-05-09T06:14:16.112Z,16.60
2023-05-09T06:16:42.936Z,16.60
2023-05-09T06:19:09.663Z,16.60
2023-05-09T06:21:36.413Z,16.60
2023-05-09T06:24:11.959Z,16.60
2023-05-09T06:26:43.984Z,16.60
2023-05-09T06:29:10.816Z,16.60
2023-05-09T06:31:39.106Z,16.60
2023-05-09T06:34:06.432Z,16.60
2023-05-09T06:36:33.722Z,16.60
2023-05-09T06:39:00.810Z,16.60
2023-05-09T06:41:27.549Z,16.60
2023-05-09T06:43:54.272Z,16.60
2023-05-09T06:46:21.071Z,16.60
2023-05-09T06:48:47.777Z,16.60
2023-05-09T06:51:14.580Z,16.60
2023-05-09T06:53:41.337Z,16.60
2023-05-09T06:56:08.159Z,16.70
2023-05-09T06:58:34.972Z,16.70
2023-05-09T07:01:01.861Z,16.70
2023-05-09T07:03:28.597Z,16.70
2023-05-09T07:05:57.369Z,16.70
2023-05-09T07:08:24.273Z,16.70
2023-05-09T07:10:51.251Z,16.70
2023-05-09T07:13:18.017Z,16.80
2023-05-09T07:15:44.910Z,16.80
2023-05-09T07:18:11.827Z,16.80
2023-05-09T07:20:38.583Z,16.80
2023-05-09T07:23:06.046Z,16.80
2023-05-09T07:25:33.930Z,16.80
2023-05-09T07:28:01.067Z,16.80
2023-05-09T07:30:27.928Z,16.80
2023-05-09T07:32:54.750Z,16.80
2023-05-09T07:35:21.808Z,16.80
2023-05-09T07:37:48.615Z,16.80
2023-05-09T07:40:15.795Z,16.80
2023-05-09T07:42:49.400Z,16.80
2023-05-09T07:45:17.090Z,16.80
2023-05-09T07:47:44.493Z,16.80
2023-05-09T07:50:11.382Z,16.80
2023-05-09T07:52:38.168Z,16.80
2023-05-09T07:55:05.282Z,16.80
2023-05-09T07:57:32.086Z,16.80
2023-05-09T07:59:58.880Z,16.80
2023-05-09T08:02:25.912Z,16.80
2023-05-09T08:04:52.764Z,16.80
2023-05-09T08:07:19.471Z,16.80
2023-05-09T08:09:46.213Z,16.80
2023-05-09T08:12:13.010Z,16.80
2023-05-09T08:14:39.739Z,16.80
2023-05-09T08:17:06.483Z,16.80
2023-05-09T08:19:33.219Z,16.80
2023-05-09T08:22:00.751Z,16.80
2023-05-09T08:24:27.468Z,16.80
2023-05-09T08:26:54.192Z,16.80
2023-05-09T08:29:20.883Z,16.80
2023-05-09T08:31:47.614Z,16.80
2023-05-09T08:34:14.485Z,16.80
2023-05-09T08:36:41.410Z,16.80
2023-05-09T08:39:09.585Z,16.80
2023-05-09T08:41:37.010Z,16.80
2023-05-09T08:44:04.534Z,16.80
2023-05-09T08:46:37.099Z,16.80
2023-05-09T08:49:08.918Z,16.80
2023-05-09T08:51:36.682Z,16.80
2023-05-09T08:54:03.974Z,16.80
2023-05-09T08:56:31.532Z,16.80
2023-05-09T08:58:59.041Z,16.80
2023-05-09T09:01:26.888Z,16.80
2023-05-09T09:03:54.007Z,16.80
2023-05-09T09:06:22.557Z,16.80
2023-05-09T09:08:50.525Z,16.80
2023-05-09T09:11:17.632Z,16.70
2023-05-09T09:13:46.575Z,16.70
2023-05-09T09:16:21.328Z,16.70
2023-05-09T09:18:49.475Z,16.80
2023-05-09T09:21:17.674Z,16.70
2023-05-09T09:23:47.503Z,16.70
2023-05-09T09:26:14.985Z,16.70
2023-05-09T09:28:42.927Z,16.80
2023-05-09T09:31:27.663Z,16.70
2023-05-09T09:34:03.690Z,16.80
2023-05-09T09:36:32.548Z,16.80
2023-05-09T09:39:01.162Z,16.80
2023-05-09T09:41:35.558Z,16.80
2023-05-09T09:44:12.650Z,16.80
2023-05-09T09:46:46.688Z,16.80
2023-05-09T09:49:14.541Z,16.80
2023-05-09T09:51:42.199Z,16.80
2023-05-09T09:54:10.477Z,16.80
2023-05-09T09:56:47.412Z,16.80
2023-05-09T09:59:16.104Z,16.80
2023-05-09T10:02:07.060Z,16.80
2023-05-09T10:04:39.172Z,16.80
2023-05-09T10:07:07.536Z,16.80
2023-05-09T10:09:37.988Z,16.80
2023-05-09T10:12:06.779Z,16.80
2023-05-09T10:14:35.582Z,16.80
2023-05-09T10:17:04.396Z,16.80
2023-05-09T10:19:32.228Z,16.80
2023-05-09T10:22:10.052Z,16.80
2023-05-09T10:24:48.818Z,16.80
2023-05-09T10:27:21.681Z,16.80
2023-05-09T10:30:10.509Z,16.80
2023-05-09T10:32:54.947Z,16.80
2023-05-09T10:35:27.935Z,16.80
2023-05-09T10:37:59.327Z,16.80
2023-05-09T10:40:26.979Z,16.80
2023-05-09T10:42:53.713Z,16.80
2023-05-09T10:45:23.073Z,16.80
2023-05-09T10:47:53.050Z,16.80
2023-05-09T10:50:21.500Z,16.80
2023-05-09T10:53:03.937Z,16.80
2023-05-09T10:56:01.998Z,16.80
2023-05-09T10:58:33.735Z,16.80
2023-05-09T11:01:01.689Z,16.80
2023-05-09T11:03:49.883Z,16.80
2023-05-09T11:06:52.540Z,16.80
2023-05-09T11:09:41.595Z,16.80
2023-05-09T11:12:13.435Z,16.80
2023-05-09T11:14:48.885Z,16.80
2023-05-09T11:17:29.012Z,16.80
2023-05-09T11:20:05.744Z,16.80
2023-05-09T11:22:44.289Z,16.80
2023-05-09T11:25:13.322Z,16.80
2023-05-09T11:27:48.568Z,16.80
2023-05-09T11:30:20.592Z,16.80
2023-05-09T11:32:52.094Z,16.80
2023-05-09T11:35:21.275Z,16.80
2023-05-09T11:37:55.059Z,16.80
2023-05-09T11:40:22.706Z,16.80
2023-05-09T11:42:55.404Z,16.80
2023-05-09T11:45:27.014Z,16.80
2023-05-09T11:47:54.259Z,16.80
2023-05-09T11:50:21.698Z,16.80
2023-05-09T11:52:49.638Z,16.80
2023-05-09T11:55:19.357Z,16.80
2023-05-09T11:57:51.696Z,16.80
2023-05-09T12:00:20.695Z,16.80
2023-05-09T12:02:47.919Z,16.80
2023-05-09T12:05:16.947Z,16.80
2023-05-09T12:07:44.623Z,16.80
2023-05-09T12:10:16.324Z,16.80
2023-05-09T12:12:45.862Z,16.80
2023-05-09T12:15:13.964Z,16.80
2023-05-09T12:17:42.583Z,16.80
2023-05-09T12:20:10.233Z,16.80
2023-05-09T12:22:40.003Z,16.80
2023-05-09T12:25:10.370Z,16.80
2023-05-09T12:27:38.500Z,16.90
2023-05-09T12:30:09.895Z,16.90
2023-05-09T12:32:39.215Z,16.90
2023-05-09T12:35:10.488Z,16.90
2023-05-09T12:37:37.807Z,16.90
2023-05-09T12:40:13.055Z,16.90
2023-05-09T12:42:43.286Z,17.00
2023-05-09T12:45:11.223Z,16.90
2023-05-09T12:47:39.104Z,17.00
2023-05-09T12:50:07.555Z,17.00
2023-05-09T12:52:50.134Z,17.00
2023-05-09T12:55:25.544Z,17.10
2023-05-09T12:58:04.402Z,17.10
2023-05-09T13:00:46.074Z,17.10
2023-05-09T13:03:25.252Z,17.10
2023-05-09T13:06:04.407Z,17.10
2023-05-09T13:08:31.805Z,17.10
2023-05-09T13:11:12.018Z,17.10
2023-05-09T13:13:42.537Z,17.20
2023-05-09T13:16:11.487Z,17.10
2023-05-09T13:18:39.548Z,17.10
2023-05-09T13:21:06.281Z,17.10
2023-05-09T13:23:33.099Z,17.20
2023-05-09T13:25:59.839Z,17.20
2023-05-09T13:28:26.605Z,17.20
2023-05-09T13:30:53.427Z,17.20
2023-05-09T13:35:50.122Z,17.20
2023-05-09T13:38:16.927Z,17.20
2023-05-09T13:40:43.655Z,17.20
2023-05-09T13:43:10.460Z,17.20
2023-05-09T13:45:37.140Z,17.20
2023-05-09T13:48:04.312Z,17.20
2023-05-09T13:50:31.034Z,17.20
2023-05-09T13:52:58.635Z,17.20
2023-05-09T13:55:26.916Z,17.10
2023-05-09T13:57:53.667Z,17.10
2023-05-09T14:00:21.348Z,17.10
2023-05-09T14:02:48.529Z,17.10
2023-05-09T14:05:15.448Z,17.10
2023-05-09T14:07:42.838Z,17.10
2023-05-09T14:10:11.819Z,17.10
2023-05-09T14:12:47.128Z,17.10
2023-05-09T14:15:14.330Z,17.10
2023-05-09T14:17:41.288Z,17.10
2023-05-09T14:20:08.614Z,17.10
2023-05-09T14:22:36.408Z,17.10
2023-05-09T14:25:03.292Z,17.00
2023-05-09T14:27:30.285Z,17.10
2023-05-09T14:29:57.451Z,17.00
2023-05-09T14:32:24.325Z,17.10
2023-05-09T14:34:51.250Z,17.00
2023-05-09T14:37:17.964Z,17.00
2023-05-09T14:39:49.397Z,17.00
2023-05-09T14:42:16.696Z,17.00
2023-05-09T14:44:44.718Z,17.10
2023-05-09T14:47:12.135Z,17.10
2023-05-09T14:49:40.062Z,17.10
2023-05-09T14:52:06.855Z,17.00
2023-05-09T14:54:33.834Z,17.00
2023-05-09T14:57:02.026Z,17.00
2023-05-09T14:59:29.604Z,17.10
2023-05-09T15:01:56.370Z,17.00
2023-05-09T15:04:25.473Z,17.10
2023-05-09T15:06:52.270Z,17.10
2023-05-09T15:09:19.351Z,17.10
2023-05-09T15:11:48.914Z,17.00
2023-05-09T15:14:16.715Z,17.00
2023-05-09T15:16:44.004Z,17.00
2023-05-09T15:19:11.060Z,17.00
2023-05-09T15:21:37.846Z,17.00
2023-05-09T15:24:05.257Z,17.00
2023-05-09T15:26:32.414Z,17.00
2023-05-09T15:28:59.346Z,17.00
2023-05-09T15:31:26.333Z,17.00
2023-05-09T15:33:53.313Z,17.00
2023-05-09T15:36:20.037Z,17.00
2023-05-09T15:38:49.469Z,17.00
2023-05-09T15:41:16.780Z,17.00
2023-05-09T15:43:43.604Z,16.90
2023-05-09T15:46:10.533Z,16.90
2023-05-09T15:48:37.487Z,16.80
2023-05-09T15:51:04.529Z,16.80
2023-05-09T15:53:31.643Z,16.70
2023-05-09T15:55:58.418Z,16.70
2023-05-09T15:58:25.470Z,16.60
2023-05-09T16:00:52.339Z,16.60
2023-05-09T16:03:19.649Z,16.50
2023-05-09T16:05:46.907Z,16.50
2023-05-09T16:08:13.764Z,16.50
2023-05-09T16:10:40.875Z,16.50
2023-05-09T16:13:08.039Z,16.50
2023-05-09T16:15:35.362Z,16.50
2023-05-09T16:18:02.121Z,16.50
2023-05-09T16:20:29.077Z,16.40
2023-05-09T16:22:55.891Z,16.40
2023-05-09T16:25:22.740Z,16.40
2023-05-09T16:27:49.564Z,16.40
2023-05-09T16:30:17.172Z,16.40
2023-05-09T16:32:44.603Z,16.40
2023-05-09T16:35:11.395Z,16.40
2023-05-09T16:37:38.279Z,16.40
2023-05-09T16:40:05.599Z,16.40
2023-05-09T16:42:32.363Z,16.40
2023-05-09T16:45:00.204Z,16.40
2023-05-09T16:47:27.070Z,16.40
2023-05-09T16:49:53.757Z,16.40
2023-05-09T16:52:20.771Z,16.40
2023-05-09T16:54:49.161Z,16.40
2023-05-09T16:57:16.181Z,16.40
2023-05-09T16:59:42.953Z,16.40
2023-05-09T17:02:09.657Z,16.40
2023-05-09T17:04:37.654Z,16.40
2023-05-09T17:07:04.802Z,16.40
2023-05-09T17:09:32.321Z,16.40
2023-05-09T17:11:59.225Z,16.40
2023-05-09T17:14:26.872Z,16.40
2023-05-09T17:16:54.058Z,16.40
2023-05-09T17:19:23.373Z,16.40
2023-05-09T17:21:50.747Z,16.30
2023-05-09T17:24:17.909Z,16.30
2023-05-09T17:26:44.615Z,16.30
2023-05-09T17:29:11.449Z,16.30
2023-05-09T17:31:38.230Z,16.30
2023-05-09T17:34:05.671Z,16.30
2023-05-09T17:36:33.616Z,16.30
2023-05-09T17:39:00.885Z,16.30
2023-05-09T17:41:27.732Z,16.20
2023-05-09T17:43:57.241Z,16.20
2023-05-09T17:46:24.484Z,16.20
2023-05-09T17:48:51.390Z,16.20
2023-05-09T17:51:18.277Z,16.20
2023-05-09T17:53:45.002Z,16.20
2023-05-09T17:56:11.812Z,16.10
2023-05-09T17:58:38.634Z,16.10
2023-05-09T18:01:05.667Z,16.10
2023-05-09T18:03:32.851Z,16.10
2023-05-09T18:06:02.765Z,16.10
2023-05-09T18:08:29.884Z,16.10
2023-05-09T18:10:57.340Z,16.10
2023-05-09T18:13:24.446Z,16.10
2023-05-09T18:15:51.480Z,16.10
2023-05-09T18:18:18.475Z,16.10
2023-05-09T18:20:47.092Z,16.10
2023-05-09T18:23:14.755Z,16.10
2023-05-09T18:25:41.989Z,16.10
2023-05-09T18:28:09.326Z,16.10
2023-05-09T18:30:36.249Z,16.00
2023-05-09T18:33:03.228Z,16.00
2023-05-09T18:35:30.088Z,16.00
2023-05-09T18:37:56.909Z,16.00
2023-05-09T18:40:23.862Z,16.00
2023-05-09T18:42:50.798Z,16.00
2023-05-09T18:45:18.200Z,16.00
2023-05-09T18:47:44.971Z,16.00
2023-05-09T18:50:13.594Z,16.00
2023-05-09T18:52:41.493Z,15.90
2023-05-09T18:55:08.662Z,15.90
2023-05-09T18:57:35.518Z,15.90
2023-05-09T19:00:02.262Z,15.90
2023-05-09T19:02:30.158Z,15.90
2023-05-09T19:04:57.159Z,15.90
2023-05-09T19:07:24.973Z,15.90
2023-05-09T19:09:51.812Z,15.90
2023-05-09T19:12:19.214Z,15.90
2023-05-09T19:14:45.984Z,15.90
2023-05-09T19:17:12.851Z,15.90
2023-05-09T19:19:40.400Z,15.90
2023-05-09T19:22:07.161Z,15.90
2023-05-09T19:24:33.942Z,15.90
2023-05-09T19:27:00.844Z,15.80
2023-05-09T19:29:27.571Z,15.80
2023-05-09T19:31:54.532Z,15.80
2023-05-09T19:34:21.644Z,15.80
2023-05-09T19:36:48.559Z,15.80
2023-05-09T19:39:15.337Z,15.70
2023-05-09T19:41:42.128Z,15.70
2023-05-09T19:44:08.950Z,15.70
2023-05-09T19:46:38.147Z,15.60
2023-05-09T19:49:06.175Z,15.70
2023-05-09T19:51:33.148Z,15.60
2023-05-09T19:53:59.953Z,15.60
2023-05-09T19:56:27.327Z,15.50
2023-05-09T19:58:54.816Z,15.50
2023-05-09T20:01:21.912Z,15.50
2023-05-09T20:03:51.991Z,15.40
2023-05-09T20:06:19.519Z,15.40
2023-05-09T20:08:46.993Z,15.40
2023-05-09T20:11:14.778Z,15.30
2023-05-09T20:13:42.107Z,15.30
2023-05-09T20:16:09.150Z,15.30
2023-05-09T20:18:35.996Z,15.20
2023-05-09T20:21:03.768Z,15.20
2023-05-09T20:23:31.187Z,15.20
2023-05-09T20:25:58.152Z,15.20
2023-05-09T20:28:25.248Z,15.10
2023-05-09T20:30:52.068Z,15.10
2023-05-09T20:33:19.058Z,15.10
2023-05-09T20:35:45.868Z,15.10
2023-05-09T20:38:12.609Z,15.10
2023-05-09T20:40:40.376Z,15.10
2023-05-09T20:43:07.508Z,15.10
2023-05-09T20:45:36.483Z,15.10
2023-05-09T20:48:05.610Z,15.10
2023-05-09T20:50:32.512Z,15.10
2023-05-09T20:52:59.219Z,15.00
2023-05-09T20:55:25.965Z,15.00
2023-05-09T20:57:52.679Z,15.10
2023-05-09T21:00:19.589Z,15.00
2023-05-09T21:02:46.484Z,15.00
2023-05-09T21:05:13.338Z,15.00
2023-05-09T21:07:41.552Z,15.00
2023-05-09T21:10:10.193Z,15.00
2023-05-09T21:12:37.099Z,15.00
2023-05-09T21:15:04.230Z,15.00
2023-05-09T21:17:31.325Z,15.00
2023-05-09T21:19:58.086Z,15.00
2023-05-09T21:22:25.064Z,15.00
2023-05-09T21:24:51.826Z,15.00
2023-05-09T21:27:18.736Z,15.00
2023-05-09T21:29:49.154Z,15.00
2023-05-09T21:32:16.943Z,15.00
2023-05-09T21:34:43.700Z,15.00
2023-05-09T21:37:10.522Z,15.00
2023-05-09T21:39:37.275Z,15.00
2023-05-09T21:42:04.300Z,15.00
2023-05-09T21:44:31.221Z,15.00
2023-05-09T21:46:58.091Z,15.00
2023-05-09T21:49:26.789Z,15.00
2023-05-09T21:51:53.489Z,15.00
2023-05-09T21:54:20.976Z,15.00
2023-05-09T21:56:47.668Z,15.00
2023-05-09T21:59:14.436Z,15.00
2023-05-09T22:01:42.135Z,15.10
2023-05-09T22:04:10.533Z,15.10
2023-05-09T22:06:37.383Z,15.10
2023-05-09T22:09:05.459Z,15.10
2023-05-09T22:11:32.208Z,15.10
2023-05-09T22:13:58.902Z,15.10
2023-05-09T22:16:25.841Z,15.10
2023-05-09T22:18:53.681Z,15.10
2023-05-09T22:21:20.456Z,15.10
2023-05-09T22:23:47.215Z,15.10
2023-05-09T22:26:13.958Z,15.10
2023-05-09T22:28:40.709Z,15.10
2023-05-09T22:31:07.729Z,15.10
2023-05-09T22:33:34.540Z,15.10
2023-05-09T22:36:01.504Z,15.10
2023-05-09T22:38:28.234Z,15.10
2023-05-09T22:40:55.001Z,15.10
2023-05-09T22:43:22.280Z,15.10
2023-05-09T22:45:49.141Z,15.10
2023-05-09T22:48:16.375Z,15.10
2023-05-09T22:50:43.052Z,15.10
2023-05-09T22:53:09.821Z,15.10
2023-05-09T22:55:36.591Z,15.10
2023-05-09T22:58:03.739Z,15.10
2023-05-09T23:00:30.773Z,15.10
2023-05-09T23:02:59.349Z,15.10
2023-05-09T23:05:26.290Z,15.10
2023-05-09T23:07:53.009Z,15.10
2023-05-09T23:10:19.792Z,15.10
2023-05-09T23:12:46.609Z,15.10
2023-05-09T23:15:13.427Z,15.10
2023-05-09T23:17:41.629Z,15.10
2023-05-09T23:20:09.012Z,15.10
2023-05-09T23:22:35.871Z,15.10
2023-05-09T23:25:03.316Z,15.10
2023-05-09T23:27:31.230Z,15.00
2023-05-09T23:29:58.014Z,15.00
2023-05-09T23:32:24.817Z,15.00
2023-05-09T23:34:52.070Z,15.00
2023-05-09T23:37:18.789Z,15.00
2023-05-09T23:39:45.466Z,15.00
2023-05-09T23:42:12.364Z,15.00
2023-05-09T23:44:39.267Z,15.00
2023-05-09T23:47:06.293Z,15.00
2023-05-09T23:49:33.014Z,15.00
2023-05-09T23:51:59.719Z,15.00
2023-05-09T23:54:27.204Z,15.00
2023-05-09T23:56:54.096Z,15.00
2023-05-09T23:59:20.869Z,14.90
